Terminal Aerodrome Forecast
Issued by NWS Kansas City/Pleasant Hill, MO

Home | Current Version | Previous Version | Text Only | Print | Product List | Glossary On
Versions: 1 2 3 4 5 6 7 8 9 10 11 12 13 14 15
000
FTUS43 KEAX 242300
TAFMCI
TAF
KMCI 242327Z 2500/2524 15010KT P6SM OVC035
     FM250200 17014G23KT P6SM -SHRA VCTS BKN025CB
      TEMPO 2504/2508 -TSRA BKN025CB
     FM250900 23012G20KT P6SM -SHRA OVC015
     FM251600 31012KT P6SM BKN015=

USA.gov is the U.S. government's official web portal to all federal, state and local government web resources and services.